APA weather

Centennial Airport
Denver, Colorado, United States

Public forecast

Using degrees Fahrenheit for public forecast. Weather courtesy of forecast.io.

Current aviation weather report (METAR) for Centennial Airport

Retrieved 2020/07/04 05:53 UTC (29 minutes ago):

KAPA 040553Z 17013G25KT 10SM BKN120 BKN220 22/10 A3027 RMK AO2 SLP164 T02170100 10267 20217 50007

Aviation forecast (TAF) for Centennial Airport

Retrieved 2020/07/04 06:42 UTC (0 seconds ago):

TAF KAPA 040540Z 0406/0506 17012G20KT P6SM FEW110 BKN120 FM040900 18008KT P6SM SCT140 BKN220 FM041400 30008KT P6SM FEW140 BKN200 FM041900 10008KT P6SM FEW080 BKN140 FM042100 05012KT P6SM -SHRA SCT080 BKN140 TEMPO 0421/0424 VRB25G40KT TSRA BKN070CB FM050400 15012KT P6SM VCSH SCT050 BKN080